Time;durP1;ratioP1;P1;durP2;ratioP2;P2;SDS_P1;SDS_P2;PMS_P1;PMS_P2;Temp;Humidity;BMP_temperature;BMP_pressure;BME280_temperature;BME280_humidity;BME280_pressure;Samples;Min_cycle;Max_cycle;Signal;HPM_P1;HPM_P2
2024/01/10 00:00:06;;;;;;;9.57;2.80;;;;;;;0.45;100.00;102239.91;4894974;29;20063;-95
2024/01/10 00:06:23;;;;;;;;;;;;;;;;;;;;;
2024/01/10 00:09:55;;;;;;;;;;;;;;;;;;;;;
2024/01/10 00:13:35;;;;;;;;;;;;;;;;;;;;;
2024/01/10 00:17:17;;;;;;;16.60;3.65;;;;;;;0.34;100.00;102240.16;4893221;29;20048;-96
2024/01/10 00:25:33;;;;;;;15.80;3.53;;;;;;;0.26;100.00;102239.47;4795176;29;20046;-96
2024/01/10 00:29:11;;;;;;;12.55;3.25;;;;;;;0.30;100.00;102245.47;4800316;29;20147;-96
2024/01/10 00:35:55;;;;;;;17.23;4.25;;;;;;;0.33;100.00;102235.84;4828788;29;20041;-95
2024/01/10 00:44:36;;;;;;;;;;;;;;;;;;;;;
2024/01/10 00:52:20;;;;;;;;;;;;;;;;;;;;;
2024/01/10 00:59:48;;;;;;;7.82;2.50;;;;;;;0.20;100.00;102217.06;4708842;29;20045;-95
2024/01/10 01:02:40;;;;;;;;;;;;;;;;;;;;;
2024/01/10 01:05:47;;;;;;;15.48;3.65;;;;;;;0.28;100.00;102216.03;4842085;29;20129;-96
2024/01/10 01:09:20;;;;;;;16.20;3.85;;;;;;;0.34;100.00;102218.47;4841562;29;20053;-95
2024/01/10 01:11:49;;;;;;;16.67;3.10;;;;;;;0.25;100.00;102216.94;4919119;29;20035;-96
2024/01/10 01:14:27;;;;;;;21.63;3.22;;;;;;;0.33;100.00;102216.78;4914579;29;20047;-95
2024/01/10 01:17:10;;;;;;;15.05;3.35;;;;;;;0.33;100.00;102216.78;4921462;29;20055;-95
2024/01/10 01:20:15;;;;;;;8.95;2.28;;;;;;;0.33;100.00;102219.38;4883586;29;20035;-94
2024/01/10 01:23:08;;;;;;;;;;;;;;;;;;;;;
2024/01/10 01:26:36;;;;;;;21.45;3.92;;;;;;;0.36;100.00;102219.31;4908208;29;20039;-95
2024/01/10 01:29:08;;;;;;;17.80;3.58;;;;;;;0.34;100.00;102218.47;4908568;29;20489;-95
2024/01/10 01:32:13;;;;;;;8.95;2.60;;;;;;;0.38;100.00;102216.69;4920012;29;20091;-96
2024/01/10 01:34:41;;;;;;;13.15;3.63;;;;;;;0.50;100.00;102229.41;4914478;29;20067;-95
2024/01/10 01:37:38;;;;;;;8.85;2.47;;;;;;;0.66;100.00;102229.94;4910612;29;20039;-94
2024/01/10 01:40:35;;;;;;;10.73;3.35;;;;;;;0.59;100.00;102205.78;4923982;29;20043;-95
2024/01/10 01:43:27;;;;;;;9.40;2.13;;;;;;;0.71;100.00;102214.19;4893370;29;20119;-94
2024/01/10 01:46:12;;;;;;;;;;;;;;;;;;;;;
2024/01/10 01:49:03;;;;;;;12.52;3.25;;;;;;;0.68;100.00;102222.94;4910010;29;20040;-95
2024/01/10 01:51:44;;;;;;;16.90;3.03;;;;;;;0.73;100.00;102222.84;4880194;29;20043;-94
2024/01/10 01:54:11;;;;;;;10.40;2.03;;;;;;;0.64;100.00;102213.47;4892993;29;20054;-94
2024/01/10 01:56:40;;;;;;;12.68;2.88;;;;;;;0.69;100.00;102221.19;4923553;29;20700;-95
2024/01/10 01:59:08;;;;;;;11.48;2.88;;;;;;;0.71;100.00;102216.81;4905804;29;20425;-94
2024/01/10 02:01:42;;;;;;;6.32;2.60;;;;;;;0.73;100.00;102223.69;4878949;29;20056;-94
2024/01/10 02:04:34;;;;;;;13.52;3.45;;;;;;;0.71;100.00;102212.47;4897204;29;20031;-95
2024/01/10 02:07:05;;;;;;;;;;;;;;;0.68;100.00;102207.34;4889462;29;20044;-94
2024/01/10 02:09:46;;;;;;;14.80;2.85;;;;;;;0.69;100.00;102224.66;4910763;29;20001;-95
2024/01/10 02:12:44;;;;;;;9.77;2.10;;;;;;;0.70;100.00;102220.31;4881979;29;20123;-95
2024/01/10 02:15:26;;;;;;;8.80;1.92;;;;;;;0.59;100.00;102215.34;4863050;29;20039;-95
2024/01/10 02:17:55;;;;;;;11.05;2.38;;;;;;;0.54;100.00;102215.44;4887005;29;20023;-94
2024/01/10 02:21:01;;;;;;;13.52;2.72;;;;;;;0.58;100.00;102213.63;4893915;29;20039;-95
2024/01/10 02:23:27;;;;;;;12.15;2.85;;;;;;;0.56;100.00;102225.81;4886043;29;20032;-95
2024/01/10 02:25:56;;;;;;;8.25;2.50;;;;;;;0.56;100.00;102226.66;4883669;29;20045;-94
2024/01/10 02:28:23;;;;;;;11.30;2.92;;;;;;;0.51;100.00;102219.88;4885155;29;20108;-94
2024/01/10 02:30:59;;;;;;;7.60;2.30;;;;;;;0.54;100.00;102222.41;4869797;29;20036;-95
2024/01/10 02:40:17;;;;;;;9.27;2.20;;;;;;;0.63;100.00;102253.41;4899478;29;20054;-95
2024/01/10 02:43:59;;;;;;;9.65;3.47;;;;;;;0.56;100.00;102244.88;4873650;29;20127;-95
2024/01/10 02:47:08;;;;;;;;;;;;;;;;;;;;;
2024/01/10 02:50:10;;;;;;;23.55;4.63;;;;;;;0.55;100.00;102248.38;4895540;29;20477;-95
2024/01/10 02:52:52;;;;;;;18.38;3.67;;;;;;;0.51;100.00;102251.94;4866600;29;20073;-94
2024/01/10 02:55:33;;;;;;;17.33;4.13;;;;;;;0.51;100.00;102243.28;4883712;29;20088;-95
2024/01/10 02:58:21;;;;;;;9.27;2.38;;;;;;;0.55;100.00;102247.53;4883701;29;20043;-94
2024/01/10 03:01:04;;;;;;;8.70;2.28;;;;;;;0.54;100.00;102244.06;4886582;29;20040;-94
2024/01/10 03:03:40;;;;;;;7.93;2.10;;;;;;;0.51;100.00;102235.47;4901218;29;20120;-96
2024/01/10 03:10:59;;;;;;;7.20;1.83;;;;;;;0.41;100.00;102245.22;5351390;23;20025;-93
2024/01/10 03:13:25;;;;;;;6.70;2.38;;;;;;;0.38;100.00;102227.09;4920124;29;20047;-94
2024/01/10 03:20:05;;;;;;;7.78;1.08;;;;;;;0.44;100.00;102224.34;4900433;29;20115;-91
2024/01/10 03:22:32;;;;;;;6.50;1.67;;;;;;;0.47;100.00;102222.53;4902824;29;20090;-92
2024/01/10 03:25:01;;;;;;;11.35;2.53;;;;;;;0.44;100.00;102214.81;4920757;29;20102;-92
2024/01/10 03:27:35;;;;;;;5.30;1.95;;;;;;;0.44;100.00;102222.63;4919505;29;20028;-93
2024/01/10 03:37:58;;;;;;;5.65;1.70;;;;;;;0.41;100.00;102211.41;4888146;29;20139;-94
2024/01/10 03:40:24;;;;;;;12.30;2.28;;;;;;;0.47;100.00;102229.47;4866067;29;20052;-93
2024/01/10 03:42:50;;;;;;;6.28;1.73;;;;;;;0.49;100.00;102231.16;4866544;29;20043;-93
2024/01/10 03:45:20;;;;;;;6.95;1.83;;;;;;;0.45;100.00;102224.31;4912369;29;20050;-94
2024/01/10 03:47:49;;;;;;;7.78;1.92;;;;;;;0.48;100.00;102225.97;4904293;29;20059;-93
2024/01/10 03:50:17;;;;;;;11.70;2.17;;;;;;;0.52;100.00;102222.44;4923900;29;20123;-83
2024/01/10 03:52:44;;;;;;;13.80;2.03;;;;;;;0.48;100.00;102231.19;4905285;29;20032;-92
2024/01/10 03:55:10;;;;;;;13.23;1.88;;;;;;;0.49;100.00;102227.72;4904771;29;20039;-93
2024/01/10 03:57:37;;;;;;;7.68;1.65;;;;;;;0.51;100.00;102235.47;4922438;29;20243;-94
2024/01/10 04:00:06;;;;;;;12.30;1.83;;;;;;;0.50;100.00;102226.81;4921921;29;20199;-96
2024/01/10 04:02:38;;;;;;;14.57;1.77;;;;;;;0.54;100.00;102233.66;4905556;29;20038;-94
2024/01/10 04:05:11;;;;;;;6.57;1.80;;;;;;;0.58;100.00;102243.13;4909503;29;20049;-94
2024/01/10 04:07:43;;;;;;;8.98;1.98;;;;;;;0.61;100.00;102239.56;4908685;29;20114;-94
2024/01/10 04:10:13;;;;;;;9.70;1.50;;;;;;;0.58;100.00;102235.31;4920400;29;20062;-94
2024/01/10 04:12:40;;;;;;;12.82;2.20;;;;;;;0.57;100.00;102238.81;4920272;28;20073;-94
2024/01/10 04:15:06;;;;;;;6.32;1.17;;;;;;;0.66;100.00;102250.75;4924509;28;20039;-93
2024/01/10 04:17:32;;;;;;;8.05;1.10;;;;;;;0.66;100.00;102242.94;4933246;29;20066;-93
2024/01/10 04:19:58;;;;;;;6.10;1.63;;;;;;;0.63;100.00;102243.00;4949370;28;20134;-93
2024/01/10 04:22:25;;;;;;;10.20;1.83;;;;;;;0.71;100.00;102251.50;4917620;29;20067;-94
2024/01/10 04:24:51;;;;;;;9.13;1.40;;;;;;;0.65;100.00;102238.63;4924447;28;20062;-93
2024/01/10 04:27:20;;;;;;;8.70;1.83;;;;;;;0.66;100.00;102244.69;4927031;28;20133;-94
2024/01/10 04:29:47;;;;;;;8.23;1.70;;;;;;;0.65;100.00;102243.84;4926426;28;20118;-94
2024/01/10 04:32:14;;;;;;;13.50;2.92;;;;;;;0.67;100.00;102246.41;4926309;28;20387;-93
2024/01/10 04:34:48;;;;;;;5.82;1.25;;;;;;;0.64;100.00;102236.06;4942453;28;20078;-95
2024/01/10 04:37:14;;;;;;;16.25;2.03;;;;;;;0.56;100.00;102229.28;4925287;28;20054;-93
2024/01/10 04:39:42;;;;;;;8.32;1.77;;;;;;;0.58;100.00;102239.66;4926357;28;20047;-93
2024/01/10 04:42:10;;;;;;;5.30;1.23;;;;;;;0.51;100.00;102209.47;4940452;28;20030;-93
2024/01/10 04:44:37;;;;;;;11.50;1.80;;;;;;;0.49;100.00;102222.50;4927361;29;20043;-94
2024/01/10 04:47:10;;;;;;;13.77;1.88;;;;;;;0.45;100.00;102215.63;4932548;28;20104;-93
2024/01/10 04:49:42;;;;;;;3.38;1.38;;;;;;;0.33;100.00;102215.03;4940811;29;20122;-95
2024/01/10 04:52:07;;;;;;;9.95;1.85;;;;;;;0.28;100.00;102211.69;4932192;29;20046;-93
2024/01/10 04:54:34;;;;;;;10.05;1.70;;;;;;;0.33;100.00;102225.44;4923189;29;20464;-93
2024/01/10 04:57:00;;;;;;;11.93;1.65;;;;;;;0.25;100.00;102219.56;4910977;28;20031;-92
2024/01/10 04:59:31;;;;;;;2.33;1.02;;;;;;;0.32;100.00;102221.13;4921068;28;20113;-91
2024/01/10 05:01:58;;;;;;;7.00;1.77;;;;;;;0.32;100.00;102225.47;4936415;28;20066;-94
2024/01/10 05:04:24;;;;;;;8.63;1.60;;;;;;;0.33;100.00;102228.06;4938340;28;20078;-93
2024/01/10 05:06:49;;;;;;;8.88;1.92;;;;;;;0.33;100.00;102222.00;4921585;29;20118;-91
2024/01/10 05:09:18;;;;;;;6.40;1.10;;;;;;;0.37;100.00;102223.63;4922268;28;20026;-91
2024/01/10 05:11:50;;;;;;;4.57;1.23;;;;;;;0.38;100.00;102214.94;4940687;28;20388;-93
2024/01/10 05:14:21;;;;;;;7.55;1.35;;;;;;;0.35;100.00;102209.81;4931300;28;20043;-92
2024/01/10 05:16:50;;;;;;;10.15;1.67;;;;;;;0.41;100.00;102214.88;4931753;28;20374;-93
2024/01/10 05:19:16;;;;;;;6.75;1.40;;;;;;;0.42;100.00;102215.72;4930568;29;20043;-93
2024/01/10 05:21:42;;;;;;;9.32;1.58;;;;;;;0.43;100.00;102213.06;4922577;29;20039;-94
2024/01/10 05:24:08;;;;;;;7.47;1.42;;;;;;;0.40;100.00;102200.13;4933193;28;20046;-93
2024/01/10 05:26:36;;;;;;;9.65;1.52;;;;;;;0.52;100.00;102217.22;4940699;28;20035;-92
2024/01/10 05:29:10;;;;;;;4.65;1.30;;;;;;;0.51;100.00;102205.09;4926401;28;20053;-92
2024/01/10 05:31:36;;;;;;;6.25;1.23;;;;;;;0.54;100.00;102219.81;4929645;28;20038;-93
2024/01/10 05:34:07;;;;;;;7.53;1.00;;;;;;;0.55;100.00;102218.91;4938698;28;20039;-92
2024/01/10 05:36:39;;;;;;;13.23;1.70;;;;;;;0.51;100.00;102215.50;4925287;28;20482;-93
2024/01/10 05:39:08;;;;;;;11.23;1.50;;;;;;;0.49;100.00;102207.72;4937494;28;20057;-92
2024/01/10 05:41:34;;;;;;;7.80;1.38;;;;;;;0.51;100.00;102215.50;4942789;29;20047;-93
2024/01/10 05:44:11;;;;;;;13.55;1.65;;;;;;;0.54;100.00;102205.03;4945061;28;20042;-94
2024/01/10 05:46:37;;;;;;;11.77;2.17;;;;;;;0.43;100.00;102202.66;4945549;28;20026;-93
2024/01/10 05:49:04;;;;;;;16.42;2.03;;;;;;;0.47;100.00;102203.47;4945824;28;20038;-93
2024/01/10 05:51:33;;;;;;;10.85;1.65;;;;;;;0.45;100.00;102198.28;4942889;28;20062;-93
2024/01/10 05:54:00;;;;;;;8.70;1.95;;;;;;;0.41;100.00;102195.78;4926159;29;20075;-93
2024/01/10 05:56:27;;;;;;;6.82;1.10;;;;;;;0.33;100.00;102193.38;4921774;28;20529;-91
2024/01/10 05:58:53;;;;;;;6.35;1.80;;;;;;;0.28;100.00;102188.28;4924545;29;20039;-93
2024/01/10 06:01:20;;;;;;;8.88;2.05;;;;;;;0.24;100.00;102191.81;4922971;29;20039;-93
2024/01/10 06:03:46;;;;;;;6.75;1.15;;;;;;;0.21;100.00;102195.34;4938627;29;20039;-92
2024/01/10 06:06:11;;;;;;;8.85;2.20;;;;;;;0.13;100.00;102193.81;4922833;28;20079;-92
2024/01/10 06:08:37;;;;;;;16.35;1.88;;;;;;;0.19;100.00;102198.88;4924361;29;20067;-93
2024/01/10 06:11:06;;;;;;;13.40;2.75;;;;;;;0.22;100.00;102201.41;4920575;28;20425;-93
2024/01/10 06:13:32;;;;;;;7.47;1.70;;;;;;;0.23;100.00;102206.59;4933627;28;20051;-93
2024/01/10 06:15:58;;;;;;;6.60;1.30;;;;;;;0.24;100.00;102204.81;4943559;28;20130;-93
2024/01/10 06:18:24;;;;;;;12.80;1.38;;;;;;;0.26;100.00;102209.97;4913383;29;20352;-93
2024/01/10 06:20:49;;;;;;;10.35;1.20;;;;;;;0.32;100.00;102223.72;4918870;29;20027;-93
2024/01/10 06:23:15;;;;;;;12.32;1.58;;;;;;;0.31;100.00;102222.03;4939685;28;20374;-93
2024/01/10 06:25:41;;;;;;;7.18;1.27;;;;;;;0.32;100.00;102222.88;4928558;28;20121;-93
2024/01/10 06:28:07;;;;;;;5.78;1.15;;;;;;;0.24;100.00;102215.22;4927296;28;20061;-93
2024/01/10 06:30:35;;;;;;;11.30;1.33;;;;;;;0.26;100.00;102221.25;4919470;28;20113;-93
2024/01/10 06:33:01;;;;;;;9.93;1.45;;;;;;;0.24;100.00;102217.81;4934360;28;20043;-94
2024/01/10 06:35:27;;;;;;;9.55;1.50;;;;;;;0.20;100.00;102216.19;4943297;28;20490;-93
2024/01/10 06:37:53;;;;;;;7.82;1.48;;;;;;;0.14;100.00;102201.59;4932898;28;20034;-93
2024/01/10 06:40:21;;;;;;;8.75;1.20;;;;;;;0.15;100.00;102215.41;4931905;28;20460;-92
2024/01/10 06:42:47;;;;;;;4.65;1.40;;;;;;;0.11;100.00;102217.25;4941880;29;20101;-93
2024/01/10 06:45:22;;;;;;;12.48;1.65;;;;;;;0.14;100.00;102224.97;4923459;28;20038;-93
2024/01/10 06:47:48;;;;;;;6.53;0.85;;;;;;;0.04;100.00;102216.50;4927487;28;20043;-93
2024/01/10 06:50:16;;;;;;;8.20;1.45;;;;;;;0.08;100.00;102218.16;4926842;28;20158;-93
2024/01/10 06:52:42;;;;;;;5.38;0.98;;;;;;;0.14;100.00;102224.97;4939440;29;20812;-92
2024/01/10 06:55:08;;;;;;;6.30;1.50;;;;;;;0.19;100.00;102220.53;4921074;28;20047;-93
2024/01/10 06:57:34;;;;;;;3.30;1.00;;;;;;;0.19;100.00;102214.47;4939975;29;20085;-93
2024/01/10 07:00:10;;;;;;;12.02;1.00;;;;;;;0.27;100.00;102214.31;4925380;28;20043;-96
2024/01/10 07:02:46;;;;;;;4.97;0.73;;;;;;;0.27;100.00;102222.94;4947068;28;20423;-96
2024/01/10 07:05:15;;;;;;;8.32;1.73;;;;;;;0.24;100.00;102223.03;4952578;28;20039;-94
2024/01/10 07:07:41;;;;;;;6.75;1.13;;;;;;;0.24;100.00;102220.41;4939330;28;20118;-93
2024/01/10 07:10:08;;;;;;;5.68;1.05;;;;;;;0.24;100.00;102216.09;4928363;29;20087;-92
2024/01/10 07:12:34;;;;;;;3.88;0.90;;;;;;;0.25;100.00;102219.56;4947336;28;20538;-92
2024/01/10 07:15:02;;;;;;;6.13;1.52;;;;;;;0.26;100.00;102217.78;4938716;28;20101;-93
2024/01/10 07:17:28;;;;;;;8.05;1.50;;;;;;;0.24;100.00;102212.63;4942961;28;20130;-92
2024/01/10 07:19:57;;;;;;;11.20;2.05;;;;;;;0.30;100.00;102216.84;4927430;28;20054;-93
2024/01/10 07:22:23;;;;;;;7.82;1.35;;;;;;;0.35;100.00;102225.41;4924675;28;20519;-92
2024/01/10 07:24:49;;;;;;;10.15;1.27;;;;;;;0.39;100.00;102224.44;4930750;28;20113;-93
2024/01/10 07:27:22;;;;;;;8.35;2.15;;;;;;;0.39;100.00;102220.97;4929294;28;20519;-93
2024/01/10 07:29:48;;;;;;;9.35;1.20;;;;;;;0.44;100.00;102224.34;4932023;29;20113;-93
2024/01/10 07:32:14;;;;;;;7.68;1.00;;;;;;;0.49;100.00;102232.91;4923610;28;20046;-92
2024/01/10 07:34:40;;;;;;;6.22;1.30;;;;;;;0.52;100.00;102229.38;4943535;28;20121;-93
2024/01/10 07:37:10;;;;;;;4.70;1.02;;;;;;;0.52;100.00;102227.66;4926154;28;20150;-93
2024/01/10 07:39:37;;;;;;;4.50;1.20;;;;;;;0.50;100.00;102224.22;4939537;28;20558;-93
2024/01/10 07:42:04;;;;;;;7.70;1.23;;;;;;;0.50;100.00;102221.59;4937061;29;20484;-93
2024/01/10 07:44:30;;;;;;;8.00;1.45;;;;;;;0.54;100.00;102222.41;4920510;28;20113;-93
2024/01/10 07:46:56;;;;;;;7.55;1.25;;;;;;;0.53;100.00;102231.06;4921582;29;20058;-93
2024/01/10 07:49:23;;;;;;;5.70;1.73;;;;;;;0.50;100.00;102234.63;4935188;28;20499;-93
2024/01/10 07:51:50;;;;;;;6.95;1.45;;;;;;;0.53;100.00;102233.69;4923117;28;20137;-93
2024/01/10 07:54:16;;;;;;;4.57;0.73;;;;;;;0.52;100.00;102237.19;4927112;28;20046;-93
2024/01/10 07:56:41;;;;;;;7.93;1.30;;;;;;;0.52;100.00;102232.84;4934094;28;20376;-93
2024/01/10 07:59:07;;;;;;;19.23;2.33;;;;;;;0.52;100.00;102242.38;4918617;28;20041;-93
2024/01/10 08:01:33;;;;;;;4.80;1.30;;;;;;;0.48;100.00;102247.66;4925355;29;20046;-93
2024/01/10 08:03:59;;;;;;;6.57;1.70;;;;;;;0.47;100.00;102251.16;4916425;29;20447;-93
2024/01/10 08:06:25;;;;;;;2.88;1.23;;;;;;;0.41;100.00;102245.22;4933810;28;20086;-93
2024/01/10 08:09:03;;;;;;;5.93;1.48;;;;;;;0.49;100.00;102257.16;4932268;28;20372;-93
2024/01/10 08:11:30;;;;;;;3.42;1.08;;;;;;;0.46;100.00;102259.84;4938229;28;20519;-94
2024/01/10 08:13:56;;;;;;;7.20;1.55;;;;;;;0.52;100.00;102271.88;4922575;28;20035;-93
2024/01/10 08:16:21;;;;;;;2.42;1.27;;;;;;;0.54;100.00;102272.69;4944899;28;20070;-93
2024/01/10 08:18:48;;;;;;;6.57;1.45;;;;;;;0.50;100.00;102268.44;4940473;28;20064;-93
2024/01/10 08:21:14;;;;;;;10.45;1.80;;;;;;;0.47;100.00;102269.38;4951744;29;20047;-93
2024/01/10 08:23:40;;;;;;;10.55;2.50;;;;;;;0.44;100.00;102269.44;4924529;28;20045;-92
2024/01/10 08:26:08;;;;;;;3.60;1.35;;;;;;;0.50;100.00;102268.44;4921528;28;20051;-92
2024/01/10 08:28:34;;;;;;;10.15;1.38;;;;;;;0.40;100.00;102269.53;4944295;28;20055;-92
2024/01/10 08:31:00;;;;;;;3.83;1.10;;;;;;;0.40;100.00;102272.97;4920749;29;20039;-92
2024/01/10 08:33:26;;;;;;;6.63;2.03;;;;;;;0.40;100.00;102278.19;4931449;28;20062;-92
2024/01/10 08:35:53;;;;;;;9.52;2.15;;;;;;;0.34;100.00;102279.19;4939376;28;20035;-93
2024/01/10 08:38:19;;;;;;;8.05;2.05;;;;;;;0.31;100.00;102283.59;4921855;28;20031;-92
2024/01/10 08:40:45;;;;;;;10.18;2.28;;;;;;;0.26;100.00;102275.00;4932237;28;20121;-92
2024/01/10 08:43:11;;;;;;;13.35;3.92;;;;;;;0.23;100.00;102276.81;4918783;28;20046;-92
2024/01/10 08:45:37;;;;;;;7.78;1.90;;;;;;;0.19;100.00;102282.09;4923163;28;20042;-93
2024/01/10 08:48:04;;;;;;;6.50;2.10;;;;;;;0.16;100.00;102290.81;4916700;28;20035;-92
2024/01/10 08:50:30;;;;;;;11.63;2.28;;;;;;;0.11;100.00;102284.84;4922819;29;20070;-93
2024/01/10 08:52:56;;;;;;;13.13;3.40;;;;;;;0.07;100.00;102283.19;4915132;28;20066;-92
2024/01/10 08:55:22;;;;;;;16.80;3.17;;;;;;;0.10;100.00;102286.59;4932792;29;20043;-93
2024/01/10 08:57:48;;;;;;;8.90;2.05;;;;;;;0.18;100.00;102296.84;4940497;28;20407;-92
2024/01/10 09:00:17;;;;;;;9.77;2.40;;;;;;;0.24;100.00;102306.25;4940269;28;20035;-93
2024/01/10 09:02:43;;;;;;;11.13;3.08;;;;;;;0.07;100.00;102296.19;4921955;28;20490;-93
2024/01/10 09:05:09;;;;;;;18.35;3.63;;;;;;;0.07;100.00;102302.25;4919121;29;20045;-92
2024/01/10 09:07:36;;;;;;;18.30;4.20;;;;;;;0.11;100.00;102300.47;4939673;28;20065;-93
2024/01/10 09:10:02;;;;;;;11.88;2.25;;;;;;;0.17;100.00;102296.88;4923082;28;20154;-93
2024/01/10 09:12:28;;;;;;;10.07;1.85;;;;;;;0.20;100.00;102296.81;4917361;29;20134;-93
2024/01/10 09:14:54;;;;;;;2.72;1.27;;;;;;;0.23;100.00;102300.22;4906517;29;20071;-93
2024/01/10 09:17:20;;;;;;;12.95;2.63;;;;;;;0.29;100.00;102311.38;4919306;29;20039;-93
2024/01/10 09:19:49;;;;;;;10.57;3.33;;;;;;;0.30;100.00;102313.09;4907581;29;20063;-92
2024/01/10 09:22:14;;;;;;;8.20;3.28;;;;;;;0.38;100.00;102310.34;4923527;29;20456;-93
2024/01/10 09:24:40;;;;;;;11.10;2.85;;;;;;;0.44;100.00;102303.25;4911242;29;20035;-92
2024/01/10 09:27:07;;;;;;;5.03;2.05;;;;;;;0.53;100.00;102315.22;4922033;28;20070;-93
2024/01/10 09:29:35;;;;;;;6.03;1.40;;;;;;;0.59;100.00;102311.66;4905966;29;20063;-94
2024/01/10 09:32:01;;;;;;;4.75;1.30;;;;;;;0.58;100.00;102291.69;4908615;29;20035;-94
2024/01/10 09:34:27;;;;;;;8.25;1.95;;;;;;;0.60;100.00;102289.94;4904325;29;20178;-93
2024/01/10 09:36:53;;;;;;;5.68;1.45;;;;;;;0.64;100.00;102299.38;4911323;29;20050;-92
2024/01/10 09:39:18;;;;;;;6.35;1.67;;;;;;;0.66;100.00;102302.81;4921794;29;20050;-93
2024/01/10 09:41:50;;;;;;;4.63;1.00;;;;;;;0.80;100.00;102306.84;4903706;29;20039;-93
2024/01/10 09:44:21;;;;;;;8.82;1.75;;;;;;;0.85;100.00;102310.19;4919406;29;20035;-92
2024/01/10 09:46:56;;;;;;;4.15;1.80;;;;;;;0.91;100.00;102307.44;4938718;29;20103;-94
2024/01/10 09:49:23;;;;;;;4.10;1.40;;;;;;;0.99;100.00;102326.38;4899186;29;20784;-94
2024/01/10 09:52:01;;;;;;;6.50;1.48;;;;;;;1.04;100.00;102315.84;4900377;29;20053;-93
2024/01/10 09:54:30;;;;;;;3.35;1.10;;;;;;;1.18;100.00;102319.88;4899116;29;20031;-92
2024/01/10 09:56:59;;;;;;;6.57;1.23;;;;;;;1.23;100.00;102320.63;4900063;29;20039;-94
2024/01/10 09:59:26;;;;;;;4.38;1.45;;;;;;;1.17;100.00;102318.16;4905822;28;20585;-94
2024/01/10 10:01:53;;;;;;;8.95;1.30;;;;;;;1.24;100.00;102314.53;4904595;28;20049;-92
2024/01/10 10:04:20;;;;;;;10.70;1.52;;;;;;;1.32;100.00;102314.34;4921005;29;20126;-94
2024/01/10 10:06:46;;;;;;;5.88;1.05;;;;;;;1.37;100.00;102320.28;4900539;28;20031;-93
2024/01/10 10:09:15;;;;;;;4.85;1.38;;;;;;;1.44;100.00;102313.16;4917761;28;20031;-93
2024/01/10 10:11:41;;;;;;;4.90;1.80;;;;;;;1.49;100.00;102316.53;4939142;28;20055;-93
2024/01/10 10:14:18;;;;;;;5.03;1.65;;;;;;;1.60;100.00;102313.66;4938306;28;20038;-93
2024/01/10 10:16:44;;;;;;;2.78;1.48;;;;;;;1.69;100.00;102330.81;4943364;28;20046;-94
2024/01/10 10:19:14;;;;;;;9.23;1.25;;;;;;;1.69;100.00;102320.38;4942861;28;20074;-93
2024/01/10 10:22:15;;;;;;;4.50;0.85;;;;;;;1.83;100.00;102317.41;4926069;28;20039;-93
2024/01/10 10:24:44;;;;;;;6.75;2.13;;;;;;;1.82;100.00;102321.75;4902160;29;20045;-93
2024/01/10 10:27:11;;;;;;;7.88;1.85;;;;;;;1.89;100.00;102311.16;4938558;28;20054;-93
2024/01/10 10:29:40;;;;;;;3.55;1.42;;;;;;;1.92;100.00;102308.47;4932265;28;20554;-93
2024/01/10 10:32:08;;;;;;;6.40;1.83;;;;;;;1.98;100.00;102308.31;4921432;28;20545;-91
2024/01/10 10:34:34;;;;;;;8.00;2.15;;;;;;;2.07;100.00;102326.31;4925094;29;20074;-93
2024/01/10 10:37:01;;;;;;;6.57;2.20;;;;;;;2.11;100.00;102321.88;4911602;28;20038;-93
2024/01/10 10:39:26;;;;;;;6.20;1.85;;;;;;;2.21;100.00;102327.69;4930341;28;20417;-95
2024/01/10 10:41:54;;;;;;;3.67;1.40;;;;;;;2.22;100.00;102325.06;4926710;28;20046;-93
2024/01/10 10:44:23;;;;;;;3.58;1.48;;;;;;;2.30;100.00;102335.28;4924580;28;20467;-93
2024/01/10 10:46:54;;;;;;;6.50;1.27;;;;;;;2.40;100.00;102330.66;4916347;28;20456;-93
2024/01/10 10:49:26;;;;;;;13.02;2.58;;;;;;;2.41;100.00;102318.44;4924998;28;20054;-93
2024/01/10 10:51:53;;;;;;;5.32;1.85;;;;;;;2.51;100.00;102326.88;4926554;29;20023;-93
2024/01/10 10:54:22;;;;;;;13.13;2.05;;;;;;;2.56;100.00;102331.06;4915126;29;20035;-93
2024/01/10 10:56:49;;;;;;;4.25;1.50;;;;;;;2.66;100.00;102329.00;4914874;29;20459;-93
2024/01/10 10:59:19;;;;;;;12.50;1.58;;;;;;;2.67;100.00;102312.47;4931825;28;20121;-94
2024/01/10 11:01:47;;;;;;;3.90;2.03;;;;;;;2.72;100.00;102312.31;4927904;28;20054;-93
2024/01/10 11:04:17;;;;;;;10.10;1.95;;;;;;;2.75;100.00;102317.47;4928971;28;20039;-93
2024/01/10 11:06:43;;;;;;;5.13;1.58;;;;;;;2.77;100.00;102312.19;4948288;29;20031;-93
2024/01/10 11:09:12;;;;;;;4.07;1.48;;;;;;;2.81;100.00;102314.66;4924114;28;20038;-93
2024/01/10 11:12:00;;;;;;;5.63;1.48;;;;;;;2.78;100.00;102309.53;4953370;28;20055;-93
2024/01/10 11:14:50;;;;;;;7.18;1.42;;;;;;;2.90;100.00;102308.28;4943524;28;20050;-81
2024/01/10 11:17:39;;;;;;;9.57;1.75;;;;;;;2.90;100.00;102304.84;4944926;28;20090;-92
2024/01/10 11:20:19;;;;;;;4.65;1.70;;;;;;;2.92;100.00;102310.84;4943508;28;21943;-93
2024/01/10 11:23:27;;;;;;;4.80;1.13;;;;;;;2.93;100.00;102317.78;4924516;28;20075;-93
2024/01/10 11:25:53;;;;;;;7.05;2.17;;;;;;;2.85;100.00;102326.72;4942176;28;20034;-93
2024/01/10 11:28:27;;;;;;;3.25;1.95;;;;;;;2.88;100.00;102319.69;4932087;28;20035;-93
2024/01/10 11:30:53;;;;;;;4.93;1.40;;;;;;;2.96;100.00;102320.31;4924397;28;20038;-92
2024/01/10 11:33:25;;;;;;;5.35;1.23;;;;;;;3.15;100.00;102319.72;4930222;28;21156;-93
2024/01/10 11:36:26;;;;;;;7.32;1.45;;;;;;;3.31;100.00;102320.09;4925267;28;20097;-94
2024/01/10 11:38:53;;;;;;;5.10;1.10;;;;;;;3.46;100.00;102318.72;4939594;28;20047;-95
2024/01/10 11:41:40;;;;;;;6.35;1.27;;;;;;;3.65;100.00;102318.09;4942007;28;20038;-92
2024/01/10 11:44:15;;;;;;;4.75;1.15;;;;;;;3.83;100.00;102321.84;4943101;28;20066;-94
2024/01/10 11:46:48;;;;;;;5.97;1.20;;;;;;;4.00;100.00;102321.25;4922730;28;20038;-94
2024/01/10 11:49:21;;;;;;;5.65;1.38;;;;;;;4.21;100.00;102316.16;4937710;28;20050;-93
2024/01/10 11:51:56;;;;;;;1.85;0.82;;;;;;;4.31;100.00;102300.97;4934231;28;20039;-94
2024/01/10 11:54:47;;;;;;;2.53;0.95;;;;;;;4.33;100.00;102307.84;4921300;28;20483;-90
2024/01/10 11:57:21;;;;;;;5.15;1.08;;;;;;;4.22;100.00;102304.78;4939341;29;20040;-92
2024/01/10 11:59:52;;;;;;;9.32;1.35;;;;;;;4.17;100.00;102286.59;4938207;28;20130;-94
2024/01/10 12:02:20;;;;;;;4.50;0.88;;;;;;;4.18;100.00;102290.09;4933420;29;20086;-93
2024/01/10 12:05:16;;;;;;;2.28;0.70;;;;;;;4.19;100.00;102287.41;4924718;28;20095;-93
2024/01/10 12:07:51;;;;;;;7.20;1.30;;;;;;;4.22;100.00;102289.09;4941384;28;20035;-95
2024/01/10 12:10:18;;;;;;;6.25;1.00;;;;;;;4.09;100.00;102271.19;4927294;28;20539;-94
2024/01/10 12:12:45;;;;;;;5.82;1.45;;;;;;;4.13;100.00;102279.78;4924845;28;20047;-93
2024/01/10 12:15:12;;;;;;;5.38;1.38;;;;;;;4.08;100.00;102271.25;4951388;28;20534;-93
2024/01/10 12:17:38;;;;;;;2.20;0.80;;;;;;;4.12;100.00;102267.63;4956764;28;20643;-96
2024/01/10 12:20:06;;;;;;;9.00;1.25;;;;;;;4.14;100.00;102281.47;4927155;28;20038;-95
2024/01/10 12:22:50;;;;;;;;;;;;;;;;;;;;;
2024/01/10 12:25:46;;;;;;;;;;;;;;;;;;;;;
2024/01/10 12:28:24;;;;;;;1.88;1.00;;;;;;;4.07;100.00;102287.88;4937697;28;20089;-96
2024/01/10 12:30:50;;;;;;;3.85;1.00;;;;;;;4.07;100.00;102283.50;4952599;28;20066;-93
2024/01/10 12:33:17;;;;;;;4.60;1.17;;;;;;;4.06;100.00;102279.16;4928633;28;20065;-93
2024/01/10 12:35:43;;;;;;;3.75;1.40;;;;;;;4.09;100.00;102272.97;4927860;28;20050;-94
2024/01/10 12:38:12;;;;;;;4.00;1.20;;;;;;;4.17;100.00;102276.13;4928507;28;20569;-94
2024/01/10 12:40:39;;;;;;;3.53;1.15;;;;;;;4.10;100.00;102264.19;4921921;28;20118;-93
2024/01/10 12:43:05;;;;;;;5.35;1.27;;;;;;;4.12;100.00;102264.16;4929415;28;20051;-94
2024/01/10 12:45:32;;;;;;;5.30;1.40;;;;;;;4.12;100.00;102262.38;4940055;28;20094;-93
2024/01/10 12:47:58;;;;;;;5.50;1.10;;;;;;;4.14;100.00;102270.19;4925116;28;20391;-93
2024/01/10 12:50:26;;;;;;;5.13;1.38;;;;;;;4.16;100.00;102271.81;4971889;28;20066;-93
2024/01/10 12:52:52;;;;;;;4.68;1.10;;;;;;;4.17;100.00;102272.69;4930218;28;20035;-93
2024/01/10 12:55:18;;;;;;;7.18;1.30;;;;;;;4.15;100.00;102264.03;4932339;28;20042;-93